Sunday, July 22, 2018, 12:18 PM EDT
Back to Local

KMUI, Muir Army Air Field / Indiantown

Location: Jonestown, PA, United States Lat: 40.433
Local Time: 12:18 PM EDT (16:18 GMT) Lon: -76.567
Time Zone: US/Eastern Elev: 488 ft

Show me the last for .
Show Coded

Time T Td Feel RH Dir Speed Gust Alt SLP Vis Weather Sky Remarks
2018-07-22 11:56 72 65 76 79 150° 8 - 29.88 29.88 10 BKN018 OVC027 None
2018-07-22 11:10 70 66 - 88 - Calm - 29.87 29.87 10 BKN018 OVC023 None
2018-07-22 11:00 68 66 - 93 170° 5 - 29.87 29.87 10 BKN014 OVC021 None
2018-07-22 10:56 69 65 - 87 170° 6 - 29.87 29.87 10 BKN016 OVC023 None
2018-07-22 10:50 70 66 - 88 170° 6 - 29.87 29.87 10 BKN016 OVC023 None
2018-07-22 10:48 70 66 - 88 170° 5 - 29.87 29.87 10 OVC020 None
2018-07-22 10:46 70 66 - 88 170° 5 - 29.86 29.86 10 BKN016 OVC022 None
2018-07-22 10:42 70 66 - 88 190° 8 - 29.87 29.87 10 SCT014 OVC022 None
2018-07-22 10:40 70 66 - 88 190° 8 - 29.87 29.87 10 BKN016 OVC022 None
2018-07-22 10:04 68 66 - 93 150° 7 - 29.85 29.85 10 BKN012 OVC017 None
2018-07-22 10:00 68 66 - 93 160° 6 - 29.85 29.85 10 SCT009 OVC015 None
2018-07-22 09:56 67 66 - 96 150° 9 - 29.84 29.84 10 BKN011 OVC017 None
2018-07-22 09:32 68 66 - 93 150° 6 - 29.83 29.83 10 SCT008 OVC016 None
2018-07-22 08:56 65 64 - 96 180° 7 - 29.82 29.82 10 OVC007 None
2018-07-22 08:16 64 64 - 100 180° 7 - 29.79 29.79 9 OVC007 None
2018-07-22 08:04 64 64 - 100 180° 7 - 29.79 29.79 3 BR OVC006 None
2018-07-22 08:00 64 64 - 100 190° 6 - 29.79 29.79 2 BR OVC006 Variable visibility
2018-07-22 07:56 65 64 - 98 190° 5 - 29.79 29.79 1 BR OVC006 Variable visibility
6-hr Precip Total (8am): 0.25"
24-hr Precip Total (8am): 1.67"
6-hr Min Temp (8am): 63.3°F
6-hr Max Temp (8am): 68.0°F
2018-07-22 07:54 64 64 - 100 200° 3 - 29.78 29.78 1 BR OVC008 Variable visibility
2018-07-22 07:50 64 64 - 100 - Calm - 29.78 29.78 2 BR OVC008 Variable visibility
2018-07-22 07:40 64 64 - 100 170° 3 - 29.77 29.77 3 BR OVC008 None
2018-07-22 07:34 64 64 - 100 200° 5 - 29.77 29.77 2 BR OVC008 Variable visibility
2018-07-22 07:32 64 64 - 100 200° 5 - 29.77 29.77 2 BR OVC008 None
2018-07-22 07:26 64 64 - 100 190° 5 - 29.76 29.76 3 BR OVC008 None
2018-07-22 07:20 64 64 - 100 190° 6 - 29.76 29.76 3 BR OVC006 None
2018-07-22 07:08 64 64 - 100 180° 5 - 29.75 29.75 2 BR OVC008 Variable visibility
2018-07-22 07:02 64 64 - 100 180° 5 - 29.75 29.75 3 BR OVC008 None
2018-07-22 06:56 64 63 - 96 190° 5 - 29.74 29.74 5 BR OVC009 None
2018-07-22 06:52 64 63 - 93 190° 5 - 29.74 29.74 8 OVC009 None
2018-07-22 06:50 64 63 - 93 180° 6 - 29.74 29.74 9 BKN007 OVC011 None
2018-07-22 06:48 64 63 - 93 180° 7 - 29.74 29.74 9 OVC009 None
2018-07-22 06:42 64 63 - 93 180° 5 - 29.73 29.73 10 OVC007 None
2018-07-22 06:04 63 63 - 100 220° 7 - 29.71 29.71 10 BKN006 BKN010 OVC023 None
2018-07-22 06:02 63 63 - 100 220° 8 - 29.71 29.71 10 BKN008 OVC023 None
2018-07-22 05:56 63 62 - 96 220° 6 - 29.70 29.70 10 SCT009 BKN013 BKN023 OVC031 1-hr Precip Total: 0.01"
2018-07-22 05:49 63 63 - 100 230° 9 - 29.69 29.69 10 SCT009 BKN013 OVC023 None
2018-07-22 05:43 63 63 - 100 220° 10 - 29.69 29.69 10 BKN008 OVC013 None
2018-07-22 05:41 63 63 - 100 220° 12 - 29.68 29.68 9 BKN006 OVC014 None
2018-07-22 05:38 64 63 - 93 210° 10 - 29.68 29.68 7 -DZ BR BKN006 OVC014 None
2018-07-22 05:28 64 63 - 93 240° 7 - 29.67 29.67 8 -RA SCT007 OVC012 Pressure rising rapidly
2018-07-22 05:20 64 64 - 100 250° 9 - 29.65 29.65 10 -DZ BKN008 OVC017 None
2018-07-22 05:17 64 64 - 100 230° 9 - 29.65 29.65 10 BKN008 OVC019 Pressure rising rapidly
2018-07-22 05:03 66 64 - 93 190° 6 - 29.62 29.62 10 BKN009 OVC019 None
2018-07-22 04:56 66 65 - 96 - Calm - 29.62 29.62 10 BKN011 OVC019 1-hr Precip Total: 0.04"
6-hr Precip Total (5am): 0.24"
2018-07-22 04:51 66 66 - 100 - Calm - 29.62 29.62 10 FEW010 BKN013 OVC019 None
2018-07-22 04:43 66 66 - 100 - Calm - 29.61 29.61 9 FEW010 OVC016 None
2018-07-22 04:41 68 66 - 93 - Calm - 29.61 29.61 8 FEW010 OVC014 None
2018-07-22 04:14 68 66 - 93 240° 5 - 29.60 29.60 4 RA BR FEW006 OVC011 Pressure rising rapidly
2018-07-22 03:58 68 66 - 93 60° 8 - 29.58 29.58 3 -RA BR OVC007 None
2018-07-22 03:56 67 67 - 96 60° 9 - 29.58 29.58 2 -RA BR OVC009 Variable visibility
1-hr Precip Total: 0.12"
2018-07-22 03:52 68 66 - 93 60° 7 - 29.58 29.58 2 -RA BR OVC009 None
2018-07-22 03:48 68 66 - 93 60° 9 - 29.58 29.58 2 -RA BR SCT007 OVC012 Variable visibility
2018-07-22 03:46 68 66 - 93 60° 8 - 29.58 29.58 1 -RA BR SCT007 OVC012 Variable visibility
2018-07-22 03:42 68 66 - 93 70° 10 - 29.58 29.58 2 +RA BR SCT007 OVC012 Variable visibility
2018-07-22 03:40 68 66 - 93 70° 10 - 29.58 29.58 2 -RA BR BKN007 OVC015 Variable visibility
2018-07-22 03:36 68 66 - 93 80° 10 17 29.58 29.58 3 -RA BR BKN007 OVC017 None
2018-07-22 03:28 68 66 - 93 70° 12 25 29.58 29.58 4 -DZ BR SCT008 OVC017 None
2018-07-22 03:24 68 66 - 93 70° 14 25 29.58 29.58 4 -RA BR BKN008 OVC017 None
2018-07-22 03:18 68 66 - 93 60° 14 26 29.58 29.58 5 -RA BR SCT009 OVC017 None
2018-07-22 03:14 68 68 - 100 60° 14 28 29.58 29.58 5 -RA BR BKN009 OVC017 None
2018-07-22 03:04 68 66 - 93 70° 15 22 29.58 29.58 6 BR OVC009 None
2018-07-22 02:56 67 66 - 96 70° 12 20 29.58 29.58 6 -RA BR BKN009 OVC015 1-hr Precip Total: 0.08"
2018-07-22 02:42 66 66 - 100 50° 9 17 29.59 29.59 5 -RA BR BKN009 OVC013 None
2018-07-22 02:16 66 66 - 100 40° 12 22 29.58 29.58 6 +RA BR BKN014 OVC019 Pressure falling rapidly
2018-07-22 01:56 66 65 - 96 60° 14 23 29.62 29.62 8 -RA OVC018 1-hr Precip Total: 0.15"
6-hr Precip Total (2am): 0.66"
6-hr Min Temp (2am): 61.3°F
6-hr Max Temp (2am): 66.2°F
2018-07-22 01:48 66 64 - 93 50° 12 20 29.62 29.62 5 -RA BR OVC018 None
2018-07-22 01:40 66 64 - 93 50° 9 26 29.62 29.62 3 -RA BR FEW015 OVC020 None
2018-07-22 01:38 66 64 - 93 40° 12 26 29.63 29.63 3 -RA BR OVC018 None
2018-07-22 01:34 66 64 - 93 40° 12 29 29.64 29.64 2 +RA BR OVC018 Variable visibility
2018-07-22 01:32 66 64 - 93 40° 12 29 29.65 29.65 2 RA BR BKN017 Variable visibility
2018-07-22 01:28 66 64 - 93 50° 14 29 29.65 29.65 3 RA BR BKN019 None
2018-07-22 01:22 66 64 - 93 40° 14 25 29.66 29.66 5 RA BR SCT017 BKN022 Pressure falling rapidly
2018-07-22 00:56 64 63 - 96 50° 10 18 29.70 29.70 3 +RA BR OVC015 1-hr Precip Total: 0.22"
24-hr Min Temp (1am): 58.8°F
24-hr Max Temp (1am): 70.2°F
2018-07-22 00:54 64 63 - 93 40° 10 18 29.70 29.70 3 +RA BR OVC015 None
2018-07-22 00:50 64 63 - 93 50° 10 16 29.71 29.71 2 +RA BR OVC015 Variable visibility
2018-07-22 00:44 64 63 - 93 40° 8 17 29.72 29.72 2 +RA BR SCT012 OVC017 Variable visibility
2018-07-22 00:42 64 63 - 93 50° 9 17 29.73 29.73 2 +RA BR OVC014 Variable visibility
2018-07-21 23:56 63 62 - 96 40° 6 - 29.77 29.77 8 -RA OVC010 1-hr Precip Total: 0.01"
2018-07-21 23:26 63 63 - 100 50° 7 - 29.79 29.79 10 -DZ BKN013 None
2018-07-21 23:08 63 63 - 100 40° 8 - 29.80 29.80 10 BKN013 None
2018-07-21 22:56 63 62 - 96 50° 6 - 29.81 29.81 10 -DZ BKN013 1-hr Precip Total: 0.05"
6-hr Precip Total (11pm): 0.28"
2018-07-21 22:24 63 61 - 93 60° 7 17 29.83 29.83 10 -RA BKN011 OVC017 None
2018-07-21 22:18 63 61 - 93 40° 10 17 29.83 29.83 6 -RA BR BKN009 OVC015 None
2018-07-21 22:10 63 63 - 100 40° 6 - 29.83 29.83 5 RA BR BKN012 OVC017 None
2018-07-21 21:56 63 62 - 96 40° 8 - 29.84 29.84 10 -RA OVC015 1-hr Precip Total: 0.06"
2018-07-21 21:52 63 63 - 100 40° 6 - 29.84 29.84 10 -RA OVC015 None
2018-07-21 20:56 62 61 - 96 60° 5 - 29.86 29.86 6 -RA BR BKN011 OVC023 1-hr Precip Total: 0.17"
2018-07-21 20:16 61 61 - 100 30° 8 - 29.88 29.88 4 -RA BR BKN013 OVC026 None
2018-07-21 20:04 61 61 - 100 50° 7 - 29.89 29.89 4 RA BR BKN015 OVC036 None
2018-07-21 19:56 61 60 - 96 50° 7 - 29.90 29.90 7 -RA SCT017 OVC036 1-hr Precip Total: 0.06"
6-hr Precip Total (8pm): 0.71"
6-hr Min Temp (8pm): 58.8°F
6-hr Max Temp (8pm): 66.6°F
2018-07-21 19:34 61 61 - 100 40° 6 - 29.90 29.90 9 -RA SCT028 BKN037 None
2018-07-21 19:22 61 61 - 100 40° 6 - 29.91 29.91 10 -RA BKN028 None
2018-07-21 18:56 61 60 - 96 40° 7 - 29.92 29.93 10 -RA FEW021 BKN041 1-hr Precip Total: 0.11"
2018-07-21 18:02 59 57 - 93 50° 7 - 29.95 29.96 4 -RA BR FEW013 OVC039 None
2018-07-21 18:00 59 57 - 93 50° 7 20 29.95 29.96 2 +RA BR FEW013 SCT032 OVC039 Variable visibility
2018-07-21 17:58 59 57 - 93 50° 9 20 29.95 29.96 2 +RA BR FEW013 FEW020 SCT032 OVC041 Variable visibility
2018-07-21 17:56 60 58 - 90 50° 8 21 29.95 29.96 3 RA BR FEW013 SCT020 SCT032 OVC041 1-hr Precip Total: 0.16"
2018-07-21 17:30 64 64 - 100 60° 13 18 29.94 29.94 7 -RA FEW014 SCT020 SCT025 OVC036 None
2018-07-21 17:26 64 64 - 100 60° 8 - 29.95 29.95 6 -RA BR FEW014 SCT020 BKN026 OVC036 None
2018-07-21 16:56 65 64 - 96 50° 5 - 29.95 29.95 9 -RA BKN026 OVC031 1-hr Precip Total: 0.08"
6-hr Precip Total (5pm): 0.38"
2018-07-21 16:20 64 63 - 93 30° 5 - 29.95 29.95 10 -RA BKN028 None
2018-07-21 15:56 64 63 - 96 30° 6 - 29.97 29.97 4 RA BR OVC037 1-hr Precip Total: 0.19"
2018-07-21 15:10 66 64 - 93 90° 13 17 29.99 29.99 3 RA BR SCT013 SCT024 OVC032 None
2018-07-21 14:58 66 64 - 93 80° 9 - 29.99 29.99 9 -RA SCT013 BKN018 OVC023 None
2018-07-21 14:56 66 65 - 96 60° 8 - 29.99 29.99 9 -RA SCT013 OVC020 1-hr Precip Total: 0.11"
2018-07-21 14:36 66 64 - 93 60° 5 - 29.99 29.99 9 -RA FEW013 OVC028 None
2018-07-21 13:58 66 66 - 100 50° 6 - 29.99 29.99 9 -RA BKN034 None
2018-07-21 13:56 67 65 - 95 60° 3 - 29.99 29.99 10 -RA BKN029 1-hr Precip Total: 0.05"
6-hr Precip Total (2pm): 0.05"
6-hr Min Temp (2pm): 66.6°F
6-hr Max Temp (2pm): 70.2°F
2018-07-21 13:42 66 64 - 93 60° 5 - 30.00 30.00 10 -RA SCT021 None
2018-07-21 13:26 68 64 - 88 70° 6 - 30.00 30.00 10 -RA BKN020 None
2018-07-21 12:56 69 61 - 76 70° 9 - 30.01 30.01 10 -DZ FEW021 SCT065 1-hr Precip Total: Trace
2018-07-21 12:54 70 61 - 73 80° 8 - 30.01 30.01 10 -DZ FEW021 BKN065 None
2018-07-21 12:47 70 61 - 73 70° 8 - 30.02 30.02 10 SCT065 None
2018-07-21 12:35 70 61 - 73 70° 9 - 30.02 30.02 10 -DZ FEW044 None

Support USWX by starting your Amazon purchase here.